Latest Weather Observations for Moomba Airport

IDS60801

Issued at 4:11 pm CDT Thursday 28 January 2021 (issued every 10 minutes, with the page automatically refreshed every 10 minutes)

About weather observations | Map of weather stations | Latest weather observations for SA | Other Formats
Station Details ID: 017123 Name: MOOMBA AIRPORT Lat: -28.10 Lon: 140.20 Height: 37.8 m
Data from the previous 72 hours. | See also: Recent months at Moomba Airport
Date/Time
CDT
Temp
°C
App
Temp
°C
Dew
Point
°C
Rel
Hum
%
Delta-T
°C
Wind Press
QNH
hPa
Press
MSL
hPa
Rain since
9am
mm
Dir  Spd
km/h
Gust
km/h
Spd
kts
Gust
kts
28/04:00pm 40.6 39.8 14.0 21 16.7 E 11 26 6 14 1002.5 1002.2 0.0
28/03:30pm 40.2 38.8 14.4 22 16.3 SSE 15 28 8 15 1003.0 1002.7 0.0
28/03:00pm 40.3 38.5 14.5 22 16.3 SE 17 28 9 15 1003.4 1003.1 0.0
28/02:30pm 39.6 38.6 14.6 23 15.8 SSE 13 28 7 15 1003.9 1003.6 0.0
28/02:00pm 39.5 37.3 14.5 23 15.7 SE 19 24 10 13 1004.5 1004.2 0.0
28/01:30pm 38.8 36.1 14.6 24 15.2 SE 22 32 12 17 1004.9 1004.6 0.0
28/01:00pm 37.1 34.5 13.8 25 14.4 SE 20 30 11 16 1005.4 1005.1 0.0
28/12:30pm 37.7 35.5 14.9 26 14.4 SE 20 33 11 18 1005.8 1005.5 0.0
28/12:00pm 36.0 32.0 14.1 27 13.6 SSE 28 39 15 21 1006.1 1005.8 0.0
28/11:30am 35.0 30.5 13.8 28 13.0 SSE 30 41 16 22 1006.4 1006.1 0.0
28/11:00am 34.3 29.8 13.7 29 12.6 SSE 30 41 16 22 1006.5 1006.2 0.0
28/10:30am 33.0 28.6 14.1 32 11.6 SSE 30 43 16 23 1006.7 1006.4 0.0
28/10:00am 32.5 28.9 14.1 32 11.2 SSE 26 35 14 19 1006.7 1006.4 0.0
28/09:30am 31.2 28.3 13.9 35 10.5 SE 22 32 12 17 1006.7 1006.4 0.0
28/09:00am 29.7 26.4 13.9 38 9.5 SSE 24 37 13 20 1006.8 1006.5 0.0
28/08:30am 28.2 25.1 14.4 42 8.3 SSE 24 32 13 17 1006.7 1006.4 0.0
28/08:00am 27.6 24.5 14.6 45 7.8 SSE 24 30 13 16 1006.4 1006.1 0.0
28/07:30am 27.1 24.7 14.5 46 7.6 SSE 20 30 11 16 1006.1 1005.8 0.0
28/07:00am 27.1 24.1 14.8 47 7.4 SSE 24 32 13 17 1005.7 1005.4 0.0
28/06:30am 26.3 24.0 14.7 48 7.0 S 20 26 11 14 1005.5 1005.2 0.0
28/06:00am 26.5 24.3 14.9 49 7.0 S 20 28 11 15 1005.2 1004.9 0.0
28/05:30am 26.7 24.5 14.8 48 7.2 S 20 28 11 15 1005.0 1004.7 0.0
28/05:00am 26.9 24.6 14.6 46 7.4 S 20 24 11 13 1004.6 1004.3 0.0
28/04:30am 27.4 25.3 14.8 46 7.6 SSE 19 26 10 14 1004.4 1004.1 0.0
28/04:00am 27.7 25.4 14.7 45 7.9 SSE 20 26 11 14 1004.2 1003.9 0.0
28/03:30am 27.8 25.2 14.8 45 7.9 SSE 22 28 12 15 1004.5 1004.2 0.0
28/03:00am 28.1 25.4 14.7 44 8.1 S 22 30 12 16 1004.8 1004.5 0.0
28/02:30am 28.3 25.7 14.9 44 8.2 S 22 28 12 15 1005.1 1004.8 0.0
28/02:00am 28.6 26.4 14.8 43 8.4 S 20 26 11 14 1005.3 1005.0 0.0
28/01:30am 28.8 27.2 15.0 43 8.4 S 17 24 9 13 1005.5 1005.2 0.0
28/01:00am 29.6 27.3 14.6 40 9.1 S 20 24 11 13 1005.7 1005.4 0.0
28/12:30am 30.2 27.8 14.3 38 9.7 S 20 26 11 14 1005.9 1005.6 0.0
28/12:00am 30.8 28.0 14.4 36 10.0 S 22 28 12 15 1006.1 1005.8 0.0
 
Date/Time
CDT
Temp
°C
App
Temp
°C
Dew
Point
°C
Rel
Hum
%
Delta-T
°C
Wind Press
QNH
hPa
Press
MSL
hPa
Rain since
9am
mm
Dir  Spd
km/h
Gust
km/h
Spd
kts
Gust
kts
27/11:30pm 31.3 28.9 14.4 35 10.3 S 20 28 11 15 1006.2 1005.9 0.0
27/11:00pm 31.8 28.7 14.4 34 10.6 S 24 33 13 18 1006.3 1006.0 0.0
27/10:30pm 32.4 28.8 14.1 33 11.2 S 26 37 14 20 1006.4 1006.1 0.0
27/10:00pm 32.9 28.9 14.0 32 11.5 S 28 33 15 18 1006.0 1005.7 0.0
27/09:30pm 33.4 30.1 14.0 31 11.9 S 24 33 13 18 1005.5 1005.2 0.0
27/09:00pm 33.9 30.2 13.9 30 12.3 S 26 35 14 19 1005.1 1004.8 0.0
27/08:30pm 34.4 29.3 13.8 29 12.6 S 33 44 18 24 1005.0 1004.7 0.0
27/08:00pm 35.1 29.7 13.9 28 13.0 S 35 48 19 26 1004.6 1004.3 0.0
27/07:30pm 36.0 29.9 12.9 25 14.1 S 37 48 20 26 1004.0 1003.7 0.0
27/07:00pm 36.6 31.2 12.1 23 14.7 S 32 44 17 24 1003.5 1003.2 0.0
27/06:30pm 37.4 31.8 12.1 22 15.3 S 33 46 18 25 1003.1 1002.8 0.0
27/06:23pm 37.3 31.8 12.0 22 15.2 S 32 44 17 24 1003.1 1002.8 0.0
27/06:00pm 37.6 32.4 12.9 23 15.1 S 32 48 17 26 1003.1 1002.8 0.0
27/05:58pm 37.5 32.3 12.8 22 15.1 S 32 48 17 26 1003.1 1002.8 0.0
27/05:48pm 37.5 32.3 12.8 22 15.1 SSE 32 44 17 24 1003.1 1002.8 0.0
27/05:37pm 37.6 31.8 11.5 21 15.6 S 33 43 18 23 1003.0 1002.7 0.0
27/05:30pm 37.7 33.2 13.7 24 14.9 SSE 30 39 16 21 1003.1 1002.8 0.0
27/05:18pm 37.5 32.5 13.5 24 14.8 S 32 44 17 24 1003.1 1002.8 0.0
27/05:00pm 37.4 32.6 14.0 24 14.5 SSE 32 43 17 23 1003.1 1002.8 0.0
27/04:30pm 37.8 32.7 13.1 23 15.2 SSE 32 44 17 24 1003.3 1003.0 0.0
27/04:00pm 37.1 32.6 13.8 25 14.4 S 30 39 16 21 1003.6 1003.3 0.0
27/03:51pm 37.8 33.7 13.8 24 14.9 S 28 46 15 25 1003.6 1003.3 0.0
27/03:40pm 37.4 33.8 15.2 26 14.0 S 28 48 15 26 1003.6 1003.3 0.0
27/03:30pm 37.4 33.0 15.2 26 14.0 SSE 32 46 17 25 1003.7 1003.4 0.0
27/03:25pm 37.6 33.0 13.6 24 14.8 SSE 30 46 16 25 1003.8 1003.5 0.0
27/03:13pm 37.3 33.9 15.7 27 13.7 S 28 46 15 25 1004.0 1003.7 0.0
27/03:00pm 36.7 33.5 15.2 27 13.6 SSE 26 41 14 22 1004.1 1003.8 0.0
27/02:30pm 36.7 34.1 16.8 30 12.8 S 26 43 14 23 1004.5 1004.2 0.0
27/02:00pm 35.9 34.2 17.1 32 12.1 SSE 22 32 12 17 1004.9 1004.6 0.0
27/01:30pm 35.9 34.2 18.0 34 11.7 S 24 35 13 19 1005.0 1004.7 0.0
27/01:00pm 34.3 32.3 17.5 36 10.8 S 24 33 13 18 1005.3 1005.0 0.0
27/12:30pm 33.9 33.1 18.4 40 10.1 S 20 30 11 16 1005.6 1005.3 0.0
27/12:00pm 32.5 30.7 17.9 41 9.4 S 24 30 13 16 1005.9 1005.6 0.0
27/11:30am 32.0 30.3 18.2 43 8.9 SSE 24 32 13 17 1006.1 1005.8 0.0
27/11:00am 30.6 28.9 18.0 47 8.1 SSE 24 33 13 18 1006.1 1005.8 0.0
27/10:30am 30.0 28.3 18.1 49 7.6 SSE 24 32 13 17 1006.0 1005.7 0.0
27/10:00am 29.4 28.2 18.5 52 7.0 SSE 22 33 12 18 1005.8 1005.5 0.0
27/09:30am 28.0 26.0 18.4 56 6.2 SE 26 33 14 18 1005.8 1005.5 0.0
27/09:00am 27.0 24.9 18.0 58 5.7 SE 26 35 14 19 1005.8 1005.5 0.0
27/08:30am 26.6 24.9 18.2 60 5.3 SSE 24 35 13 19 1005.7 1005.4 0.0
27/08:00am 25.5 23.7 17.9 63 4.8 SSE 24 32 13 17 1005.7 1005.4 0.0
27/07:30am 24.9 23.2 18.1 66 4.3 SSE 24 32 13 17 1005.4 1005.1 0.0
27/07:00am 24.6 23.8 18.5 69 3.9 SSE 20 28 11 15 1004.9 1004.6 0.0
27/06:30am 24.6 23.2 18.8 70 3.7 SSE 24 33 13 18 1004.5 1004.2 0.0
27/06:00am 24.8 24.4 19.0 70 3.7 S 19 24 10 13 1004.5 1004.2 0.0
27/05:30am 25.2 24.2 18.9 68 4.0 SSE 22 32 12 17 1004.1 1003.8 0.0
27/05:00am 25.4 24.1 19.1 68 4.0 SSE 24 30 13 16 1003.6 1003.3 0.0
27/04:30am 25.6 24.4 19.3 68 4.1 SSE 24 30 13 16 1003.6 1003.3 0.0
27/04:00am 25.7 25.2 19.1 67 4.2 SSE 20 30 11 16 1003.7 1003.4 0.0
27/03:30am 26.0 24.8 19.2 66 4.4 SSE 24 32 13 17 1003.6 1003.3 0.0
27/03:00am 26.3 25.1 19.2 65 4.6 SSE 24 28 13 15 1003.7 1003.4 0.0
27/02:30am 26.7 25.5 19.3 64 4.8 SSE 24 33 13 18 1003.8 1003.5 0.0
27/02:00am 27.0 25.9 19.4 63 4.9 SSE 24 30 13 16 1004.1 1003.8 0.0
27/01:30am 27.5 27.2 19.6 62 5.2 SSE 20 32 11 17 1004.3 1004.0 0.0
27/01:00am 27.9 27.4 19.9 61 5.2 SSE 22 32 12 17 1004.2 1003.9 0.0
27/12:30am 28.4 28.1 20.4 62 5.3 SSE 22 30 12 16 1004.4 1004.1 0.0
27/12:00am 28.9 27.6 20.6 61 5.5 SSE 28 35 15 19 1004.4 1004.1 0.0
 
Date/Time
CDT
Temp
°C
App
Temp
°C
Dew
Point
°C
Rel
Hum
%
Delta-T
°C
Wind Press
QNH
hPa
Press
MSL
hPa
Rain since
9am
mm
Dir  Spd
km/h
Gust
km/h
Spd
kts
Gust
kts
26/11:30pm 29.2 27.9 20.6 59 5.7 SSE 28 37 15 20 1004.3 1004.0 0.0
26/11:00pm 29.6 28.7 20.7 58 5.9 SSE 26 37 14 20 1004.2 1003.9 0.0
26/10:30pm 30.0 28.4 20.8 57 6.1 SSE 30 39 16 21 1003.9 1003.6 0.0
26/10:00pm 30.4 29.4 21.2 58 6.2 S 28 39 15 21 1003.6 1003.3 0.0
26/09:30pm 31.1 29.4 21.3 56 6.6 S 32 41 17 22 1003.1 1002.8 0.0
26/09:00pm 31.9 30.1 21.1 52 7.3 S 32 39 17 21 1002.3 1002.0 0.0
26/08:30pm 32.6 31.4 20.8 49 7.9 S 28 37 15 20 1001.6 1001.3 0.0
26/08:00pm 33.3 31.2 20.5 47 8.6 S 32 39 17 21 1001.0 1000.7 0.0
26/07:30pm 34.5 32.6 20.1 43 9.7 S 30 43 16 23 1000.7 1000.4 0.0
26/07:00pm 35.7 33.5 18.7 36 11.2 S 28 41 15 22 1000.2 999.9 0.0
26/06:30pm 35.6 34.1 19.5 38 10.7 SSW 26 44 14 24 999.8 999.5 0.0
26/06:00pm 36.9 35.4 19.4 36 11.7 S 26 39 14 21 999.6 999.3 0.0
26/05:30pm 37.3 35.7 19.3 35 12.0 SSW 26 43 14 23 999.4 999.1 0.0
26/05:00pm 37.6 35.1 18.1 32 12.8 SSW 28 43 15 23 999.4 999.1 0.0
26/04:41pm 38.4 36.7 19.7 33 12.5 SSW 28 46 15 25 999.4 999.1 0.0
26/04:30pm 38.0 35.1 18.9 32 12.7 SSW 32 44 17 24 999.3 999.0 0.0
26/04:00pm 38.3 35.5 18.2 31 13.2 SSW 30 44 16 24 999.1 998.8 0.0
26/03:30pm 39.1 37.0 18.9 31 13.5 SW 28 43 15 23 999.2 998.9 0.0
26/03:00pm 39.1 36.6 18.9 31 13.5 SW 30 41 16 22 999.4 999.1 0.0
26/02:30pm 38.0 36.7 19.9 35 12.2 SW 26 35 14 19 999.2 998.9 0.0
26/02:00pm 38.4 37.8 19.7 33 12.5 SW 22 35 12 19 999.7 999.4 0.0
26/01:30pm 37.1 37.2 20.4 37 11.3 SW 20 30 11 16 999.8 999.5 0.0
26/01:00pm 37.6 37.5 20.0 36 11.8 SW 20 33 11 18 1000.0 999.7 0.0
26/12:30pm 37.2 36.9 19.2 35 12.0 SW 19 33 10 18 1000.1 999.8 0.0
26/12:00pm 37.2 37.1 18.7 33 12.3 WSW 17 24 9 13 1000.3 1000.0 0.0
26/11:30am 36.7 35.6 17.8 32 12.4 W 20 30 11 16 1000.5 1000.2 0.0
26/11:00am 36.5 35.9 17.6 32 12.3 WNW 17 30 9 16 1000.6 1000.3 0.0
26/10:30am 35.7 34.9 17.9 35 11.6 NW 19 28 10 15 1000.6 1000.3 0.0
26/10:00am 34.9 32.6 17.6 35 11.2 NW 26 33 14 18 1000.7 1000.4 0.0
26/09:30am 34.6 32.4 17.8 37 10.9 NNW 26 35 14 19 1000.7 1000.4 0.0
26/09:00am 33.3 31.9 17.9 40 10.0 NNW 22 30 12 16 1000.8 1000.5 0.0
26/08:30am 32.9 32.3 17.5 39 9.9 N 17 22 9 12 1000.7 1000.4 0.0
26/08:00am 32.1 33.2 17.2 41 9.5 N 7 9 4 5 1000.5 1000.2 0.0
26/07:30am 30.0 31.1 17.1 46 8.2 NNE 7 9 4 5 1000.1 999.8 0.0
26/07:00am 29.6 32.3 17.8 49 7.5 CALM 0 0 0 0 999.8 999.5 0.0
26/06:30am 30.1 32.9 17.9 48 7.8 CALM 0 0 0 0 999.5 999.2 0.0
26/06:00am 30.3 32.8 18.1 48 7.9 ENE 2 7 1 4 999.1 998.8 0.0
26/05:30am 30.8 33.2 17.1 43 8.7 CALM 0 6 0 3 999.0 998.7 0.0
26/05:00am 30.6 31.7 17.0 44 8.6 NNE 7 9 4 5 998.9 998.6 0.0
26/04:30am 30.9 32.0 17.2 43 8.7 N 7 11 4 6 998.8 998.5 0.0
26/04:00am 31.2 31.2 17.1 42 8.9 N 13 15 7 8 998.5 998.2 0.0
26/03:30am 31.3 31.3 17.2 42 9.0 N 13 15 7 8 998.3 998.0 0.0
26/03:00am 31.5 31.3 16.6 40 9.4 NNW 13 17 7 9 998.6 998.3 0.0
26/02:30am 32.1 31.2 16.8 40 9.7 NNW 17 20 9 11 999.0 998.7 0.0
26/02:00am 32.4 31.4 16.7 39 9.9 N 17 20 9 11 999.1 998.8 0.0
26/01:30am 32.5 31.6 16.8 39 10.0 N 17 22 9 12 999.4 999.1 0.0
26/01:00am 32.9 31.6 16.7 38 10.3 N 19 26 10 14 999.4 999.1 0.0
26/12:30am 32.9 31.2 16.3 37 10.5 NNE 20 24 11 13 999.3 999.0 0.0
26/12:00am 32.7 30.9 16.1 37 10.5 NNE 20 24 11 13 999.5 999.2 0.0
 
Date/Time
CDT
Temp
°C
App
Temp
°C
Dew
Point
°C
Rel
Hum
%
Delta-T
°C
Wind Press
QNH
hPa
Press
MSL
hPa
Rain since
9am
mm
Dir  Spd
km/h
Gust
km/h
Spd
kts
Gust
kts
25/11:30pm 32.9 31.2 16.3 37 10.5 NNE 20 26 11 14 999.8 999.5 0.0
25/11:00pm 32.8 30.3 16.2 37 10.4 NNE 24 28 13 15 999.5 999.2 0.0
25/10:30pm 33.2 31.6 16.5 36 10.6 NNE 20 22 11 12 999.8 999.5 0.0
25/10:00pm 33.5 32.0 16.4 36 10.8 NNE 19 22 10 12 999.8 999.5 0.0
25/09:30pm 33.7 32.5 16.1 34 11.1 NNE 17 20 9 11 999.8 999.5 0.0
25/09:00pm 34.1 32.5 16.0 34 11.5 NNE 19 22 10 12 999.6 999.3 0.0
25/08:30pm 34.4 32.3 16.3 34 11.5 NNE 22 28 12 15 999.4 999.1 0.0
25/08:00pm 34.9 33.0 15.7 31 12.1 NNE 20 24 11 13 999.6 999.3 0.0
25/07:30pm 35.3 32.8 16.1 32 12.2 NNE 24 28 13 15 999.4 999.1 0.0
25/07:00pm 35.5 33.2 15.8 31 12.4 N 22 28 12 15 999.6 999.3 0.0
25/06:30pm 36.1 33.8 15.8 30 12.9 N 22 30 12 16 999.5 999.2 0.0
25/06:00pm 36.2 34.4 15.9 30 12.9 N 20 30 11 16 999.5 999.2 0.0
25/05:30pm 36.0 34.3 15.7 30 12.9 N 19 24 10 13 999.7 999.4 0.0
25/05:00pm 36.2 34.4 15.9 30 12.9 N 20 28 11 15 1000.0 999.7 0.0
25/04:30pm 36.5 33.8 15.6 29 13.3 NNE 24 30 13 16 1000.1 999.8 0.0

Other formats

Comma delimited format used in spreadsheet applications
http://www.bom.gov.au/fwo/IDS60801/IDS60801.95481.axf

JavaScript Object Notation format (JSON) in row-major order
http://www.bom.gov.au/fwo/IDS60801/IDS60801.95481.json

Data quality

Most of these data are generated automatically and are frequently updated. Quality checks on data are not normally performed. It is possible for incorrect values to appear. Refer to information at About Latest Weather Observations and please check the disclaimer before using these data.